Menan, Idaho
Current Conditions -  °F | °C
As of 10:53 PM on Friday 28 Nov 2014 (Local Time) from KRXE Reporting Station
Broken Clouds Broken Clouds  
Wind Chill: 40°   Ceiling: 10000
Heat Index: 47°   Visibility: 10mi
Dew Point: 17°   Wind: 20mph
Humidity: 30%   Direction: 220°SW
Pressure: 29.63"   Gusts: 30mph
Location:  43.72°N, 111.99°W
Report Text: KRXE 290553Z AUTO 22017G26KT 10SM SCT055 BKN100 08/M08 A2963 RMK AO2 PK WND 21026/0552 SLP019 T00831083 10106 20072 55007
Loading
Personal Weather Stations






























Interactive Weather Map New forecast layout! Learn more

10-Day Weather Forecast

Advertisements
Track Severe Weather on mobile